Overview Statistics Trail Chart Weather Telemetry Raw packets
 

This is the latest recevied weather packets stored in our database for station/object WA4TPR. If no packets are shown the sender has not sent any weather packets the latest 10 day(s).

<< 1 2 3 4 5 >>
Time Temp. Humidity Pressure Rain* Wind** Luminosity Snow
1788568225 25.56° C 98% 1017.3 hPa 1.27 mm - 0 W/m² -
1788567920 25.56° C 98% 1017.2 hPa 1.27 mm - 0 W/m² -
1788567615 25.56° C 96% 1017.4 hPa 0 mm - 0 W/m² -
1788567309 26.11° C 94% 1017.3 hPa 0 mm - 0 W/m² -
1788567003 26.67° C 94% 1017.3 hPa 0 mm - 0 W/m² -
1788566699 26.67° C 93% 1017 hPa 0 mm - 0 W/m² -
1788566394 27.22° C 94% 1017.2 hPa 0 mm - 0 W/m² -
1788566089 27.22° C 98% 1016.7 hPa 0 mm - 0 W/m² -
1788565784 27.78° C 96% 1016.7 hPa 0 mm - 0 W/m² -
1788565483 27.78° C 94% 1016.6 hPa 0 mm - 1 W/m² -
1788565180 27.78° C 94% 1016.6 hPa 0 mm - 4 W/m² -
1788564875 27.78° C 95% 1016.6 hPa 0 mm - 8 W/m² -
1788564571 27.78° C 95% 1016.6 hPa 0 mm - 12 W/m² -
1788564267 27.78° C 95% 1016.6 hPa 0 mm - 17 W/m² -
1788563964 28.33° C 94% 1016.3 hPa 0 mm - 24 W/m² -
1788563664 28.33° C 93% 1016.2 hPa 0 mm - 32 W/m² -
1788563359 27.78° C 93% 1016.4 hPa 0 mm - 43 W/m² -
1788563058 27.78° C 95% 1016.5 hPa 0 mm - 55 W/m² -
1788562753 27.78° C 95% 1016 hPa 0 mm - 60 W/m² -
1788562451 27.78° C 96% 1016 hPa 0 mm - 77 W/m² -
1788562145 27.22° C 97% 1016.3 hPa 0 mm - 109 W/m² -
1788561841 26.67° C 96% 1016.1 hPa 0 mm - 126 W/m² -
1788561535 26.67° C 98% 1016.1 hPa 0 mm - 145 W/m² -
1788561234 26.67° C 98% 1016.4 hPa 0 mm - 145 W/m² -
1788560930 26.67° C 99% 1016.1 hPa 0 mm - 131 W/m² -

* Rain latest hour (hover to see other rain measurements)
** Current wind speed in m/s (hover to see current wind gust speed)